sensor_id;sensor_type;location;lat;lon;timestamp;pressure;altitude;pressure_sealevel;temperature;humidity
50774;BME280;36745;48.544;8.918;2022-07-23T00:00:42;97394.03;;;21.04;65.69
50774;BME280;36745;48.544;8.918;2022-07-23T00:03:43;97367.00;;;21.01;66.55
50774;BME280;36745;48.544;8.918;2022-07-23T00:06:43;97349.84;;;21.10;67.08
50774;BME280;36745;48.544;8.918;2022-07-23T00:09:44;97382.53;;;21.08;66.12
50774;BME280;36745;48.544;8.918;2022-07-23T00:12:44;97375.91;;;21.05;66.25
50774;BME280;36745;48.544;8.918;2022-07-23T00:15:45;97391.53;;;20.95;66.99
50774;BME280;36745;48.544;8.918;2022-07-23T00:18:45;97392.28;;;20.90;66.58
50774;BME280;36745;48.544;8.918;2022-07-23T00:21:45;97391.75;;;20.97;67.06
50774;BME280;36745;48.544;8.918;2022-07-23T00:24:46;97363.44;;;20.95;66.71
50774;BME280;36745;48.544;8.918;2022-07-23T00:27:46;97378.50;;;20.81;67.68
50774;BME280;36745;48.544;8.918;2022-07-23T00:30:47;97382.84;;;20.82;67.10
50774;BME280;36745;48.544;8.918;2022-07-23T00:33:47;97374.72;;;20.73;68.14
50774;BME280;36745;48.544;8.918;2022-07-23T00:36:47;97360.41;;;20.71;68.65
50774;BME280;36745;48.544;8.918;2022-07-23T00:39:48;97352.53;;;20.69;68.04
50774;BME280;36745;48.544;8.918;2022-07-23T00:42:48;97342.59;;;20.68;68.12
50774;BME280;36745;48.544;8.918;2022-07-23T00:45:49;97353.53;;;20.72;69.02
50774;BME280;36745;48.544;8.918;2022-07-23T00:48:50;97334.94;;;20.69;68.00
50774;BME280;36745;48.544;8.918;2022-07-23T00:51:51;97349.75;;;20.64;67.28
50774;BME280;36745;48.544;8.918;2022-07-23T00:54:52;97335.75;;;20.53;67.32
50774;BME280;36745;48.544;8.918;2022-07-23T00:57:53;97374.25;;;20.47;68.38
50774;BME280;36745;48.544;8.918;2022-07-23T01:00:54;97362.78;;;20.50;67.67
50774;BME280;36745;48.544;8.918;2022-07-23T01:03:55;97357.72;;;20.32;68.00
50774;BME280;36745;48.544;8.918;2022-07-23T01:06:56;97358.44;;;20.32;67.68
50774;BME280;36745;48.544;8.918;2022-07-23T01:09:57;97354.38;;;20.33;67.84
50774;BME280;36745;48.544;8.918;2022-07-23T01:12:59;97323.31;;;20.20;68.24
50774;BME280;36745;48.544;8.918;2022-07-23T01:16:00;97319.75;;;20.14;68.77
50774;BME280;36745;48.544;8.918;2022-07-23T01:19:00;97299.84;;;20.12;68.83
50774;BME280;36745;48.544;8.918;2022-07-23T01:22:03;97264.94;;;20.08;69.19
50774;BME280;36745;48.544;8.918;2022-07-23T01:25:04;97225.41;;;20.11;68.91
50774;BME280;36745;48.544;8.918;2022-07-23T01:28:05;97217.78;;;20.06;70.02
50774;BME280;36745;48.544;8.918;2022-07-23T01:31:06;97244.06;;;20.14;71.02
50774;BME280;36745;48.544;8.918;2022-07-23T01:34:06;97276.44;;;20.15;70.91
50774;BME280;36745;48.544;8.918;2022-07-23T01:37:07;97258.06;;;20.03;71.78
50774;BME280;36745;48.544;8.918;2022-07-23T01:40:08;97277.94;;;20.05;71.74
50774;BME280;36745;48.544;8.918;2022-07-23T01:43:08;97296.28;;;19.95;71.44
50774;BME280;36745;48.544;8.918;2022-07-23T01:46:09;97303.94;;;19.83;72.79
50774;BME280;36745;48.544;8.918;2022-07-23T01:49:09;97319.72;;;19.81;72.71
50774;BME280;36745;48.544;8.918;2022-07-23T01:52:10;97302.66;;;19.79;72.12
50774;BME280;36745;48.544;8.918;2022-07-23T01:55:11;97300.13;;;19.75;73.64
50774;BME280;36745;48.544;8.918;2022-07-23T01:58:11;97298.34;;;19.78;73.95
50774;BME280;36745;48.544;8.918;2022-07-23T02:01:11;97307.25;;;19.71;73.89
50774;BME280;36745;48.544;8.918;2022-07-23T02:04:12;97312.34;;;19.61;73.89
50774;BME280;36745;48.544;8.918;2022-07-23T02:07:13;97326.34;;;19.56;73.45
50774;BME280;36745;48.544;8.918;2022-07-23T02:10:13;97326.84;;;19.60;73.85
50774;BME280;36745;48.544;8.918;2022-07-23T02:13:14;97318.69;;;19.50;75.44
50774;BME280;36745;48.544;8.918;2022-07-23T02:16:14;97327.34;;;19.52;75.33
50774;BME280;36745;48.544;8.918;2022-07-23T02:19:15;97346.19;;;19.58;74.79
50774;BME280;36745;48.544;8.918;2022-07-23T02:22:15;97346.94;;;19.52;74.42
50774;BME280;36745;48.544;8.918;2022-07-23T02:25:16;97361.22;;;19.55;73.69
50774;BME280;36745;48.544;8.918;2022-07-23T02:28:16;97353.81;;;19.51;73.81
50774;BME280;36745;48.544;8.918;2022-07-23T02:31:16;97356.09;;;19.47;73.49
50774;BME280;36745;48.544;8.918;2022-07-23T02:34:17;97366.50;;;19.41;73.27
50774;BME280;36745;48.544;8.918;2022-07-23T02:37:17;97362.41;;;19.31;74.21
50774;BME280;36745;48.544;8.918;2022-07-23T02:40:18;97361.44;;;19.34;74.55
50774;BME280;36745;48.544;8.918;2022-07-23T02:43:18;97376.44;;;19.37;75.71
50774;BME280;36745;48.544;8.918;2022-07-23T02:46:19;97382.53;;;19.41;75.84
50774;BME280;36745;48.544;8.918;2022-07-23T02:49:19;97377.47;;;19.39;75.85
50774;BME280;36745;48.544;8.918;2022-07-23T02:52:19;97385.34;;;19.41;76.31
50774;BME280;36745;48.544;8.918;2022-07-23T02:55:20;97387.13;;;19.38;75.98
50774;BME280;36745;48.544;8.918;2022-07-23T02:58:20;97390.94;;;19.35;75.81
50774;BME280;36745;48.544;8.918;2022-07-23T03:01:21;97388.41;;;19.37;75.74
50774;BME280;36745;48.544;8.918;2022-07-23T03:04:22;97398.34;;;19.38;76.54
50774;BME280;36745;48.544;8.918;2022-07-23T03:07:22;97406.75;;;19.38;76.21
50774;BME280;36745;48.544;8.918;2022-07-23T03:10:23;97418.19;;;19.35;76.00
50774;BME280;36745;48.544;8.918;2022-07-23T03:13:23;97412.00;;;19.31;75.85
50774;BME280;36745;48.544;8.918;2022-07-23T03:16:23;97417.88;;;19.27;76.20
50774;BME280;36745;48.544;8.918;2022-07-23T03:19:24;97413.03;;;19.28;76.88
50774;BME280;36745;48.544;8.918;2022-07-23T03:22:24;97402.09;;;19.24;77.01
50774;BME280;36745;48.544;8.918;2022-07-23T03:25:25;97390.34;;;19.20;76.41
50774;BME280;36745;48.544;8.918;2022-07-23T03:28:25;97390.09;;;19.18;76.82
50774;BME280;36745;48.544;8.918;2022-07-23T03:31:26;97385.25;;;19.13;76.84
50774;BME280;36745;48.544;8.918;2022-07-23T03:34:26;97392.34;;;19.14;76.94
50774;BME280;36745;48.544;8.918;2022-07-23T03:37:26;97392.84;;;19.07;77.16
50774;BME280;36745;48.544;8.918;2022-07-23T03:40:27;97395.88;;;19.03;77.01
50774;BME280;36745;48.544;8.918;2022-07-23T03:43:27;97387.22;;;19.01;77.69
50774;BME280;36745;48.544;8.918;2022-07-23T03:46:28;97396.16;;;19.05;77.96
50774;BME280;36745;48.544;8.918;2022-07-23T03:49:28;97398.44;;;19.07;77.66
50774;BME280;36745;48.544;8.918;2022-07-23T03:52:29;97413.19;;;19.02;77.45
50774;BME280;36745;48.544;8.918;2022-07-23T03:55:29;97420.97;;;18.87;78.20
50774;BME280;36745;48.544;8.918;2022-07-23T03:58:30;97421.69;;;18.82;78.40
50774;BME280;36745;48.544;8.918;2022-07-23T04:01:30;97416.09;;;18.82;78.59
50774;BME280;36745;48.544;8.918;2022-07-23T04:04:31;97419.94;;;18.84;78.64
50774;BME280;36745;48.544;8.918;2022-07-23T04:07:31;97434.19;;;18.81;78.53
50774;BME280;36745;48.544;8.918;2022-07-23T04:10:31;97437.97;;;18.78;78.91
50774;BME280;36745;48.544;8.918;2022-07-23T04:13:32;97437.47;;;18.79;78.56
50774;BME280;36745;48.544;8.918;2022-07-23T04:16:32;97446.63;;;18.80;78.85
50774;BME280;36745;48.544;8.918;2022-07-23T04:19:33;97442.56;;;18.81;78.56
50774;BME280;36745;48.544;8.918;2022-07-23T04:22:33;97436.97;;;18.81;79.00
50774;BME280;36745;48.544;8.918;2022-07-23T04:25:34;97440.75;;;18.78;79.02
50774;BME280;36745;48.544;8.918;2022-07-23T04:28:34;97431.38;;;18.81;79.18
50774;BME280;36745;48.544;8.918;2022-07-23T04:31:34;97432.16;;;18.87;79.15
50774;BME280;36745;48.544;8.918;2022-07-23T04:34:35;97426.84;;;18.89;79.60
50774;BME280;36745;48.544;8.918;2022-07-23T04:37:36;97437.03;;;18.92;79.51
50774;BME280;36745;48.544;8.918;2022-07-23T04:40:36;97433.22;;;18.95;79.48
50774;BME280;36745;48.544;8.918;2022-07-23T04:43:37;97435.28;;;19.00;78.85
50774;BME280;36745;48.544;8.918;2022-07-23T04:46:37;97433.03;;;19.04;79.76
50774;BME280;36745;48.544;8.918;2022-07-23T04:49:37;97437.16;;;19.20;79.53
50774;BME280;36745;48.544;8.918;2022-07-23T04:52:38;97441.81;;;19.28;79.68
50774;BME280;36745;48.544;8.918;2022-07-23T04:55:39;97450.25;;;19.34;79.69
50774;BME280;36745;48.544;8.918;2022-07-23T04:58:39;97454.84;;;19.42;79.05
50774;BME280;36745;48.544;8.918;2022-07-23T05:01:39;97455.91;;;19.45;79.44
50774;BME280;36745;48.544;8.918;2022-07-23T05:04:41;97452.56;;;19.41;79.70
50774;BME280;36745;48.544;8.918;2022-07-23T05:07:42;97450.53;;;19.41;79.58
50774;BME280;36745;48.544;8.918;2022-07-23T05:10:42;97448.00;;;19.43;79.46
50774;BME280;36745;48.544;8.918;2022-07-23T05:13:43;97439.88;;;19.45;79.50
50774;BME280;36745;48.544;8.918;2022-07-23T05:16:43;97441.69;;;19.60;79.50
50774;BME280;36745;48.544;8.918;2022-07-23T05:19:44;97419.56;;;19.84;79.54
50774;BME280;36745;48.544;8.918;2022-07-23T05:22:44;97420.59;;;19.81;78.91
50774;BME280;36745;48.544;8.918;2022-07-23T05:25:45;97437.88;;;19.74;79.06
50774;BME280;36745;48.544;8.918;2022-07-23T05:28:46;97446.81;;;19.67;78.77
50774;BME280;36745;48.544;8.918;2022-07-23T05:31:46;97444.00;;;19.67;79.14
50774;BME280;36745;48.544;8.918;2022-07-23T05:34:46;97447.03;;;19.69;79.31
50774;BME280;36745;48.544;8.918;2022-07-23T05:37:50;97438.91;;;19.71;79.89
50774;BME280;36745;48.544;8.918;2022-07-23T05:40:52;97440.50;;;19.94;79.85
50774;BME280;36745;48.544;8.918;2022-07-23T05:43:53;97436.47;;;20.40;80.19
50774;BME280;36745;48.544;8.918;2022-07-23T05:46:53;97432.34;;;20.85;79.76
50774;BME280;36745;48.544;8.918;2022-07-23T05:49:54;97422.03;;;21.27;79.40
50774;BME280;36745;48.544;8.918;2022-07-23T05:52:54;97422.69;;;21.55;78.37
50774;BME280;36745;48.544;8.918;2022-07-23T05:55:55;97431.53;;;21.70;76.91
50774;BME280;36745;48.544;8.918;2022-07-23T05:58:55;97427.88;;;21.86;76.14
50774;BME280;36745;48.544;8.918;2022-07-23T06:01:55;97416.50;;;22.09;75.91
50774;BME280;36745;48.544;8.918;2022-07-23T06:04:56;97418.00;;;22.15;75.41
50774;BME280;36745;48.544;8.918;2022-07-23T06:07:56;97403.66;;;22.43;75.55
50774;BME280;36745;48.544;8.918;2022-07-23T06:10:57;97412.69;;;22.66;74.59
50774;BME280;36745;48.544;8.918;2022-07-23T06:13:57;97409.50;;;22.80;73.68
50774;BME280;36745;48.544;8.918;2022-07-23T06:16:57;97416.06;;;22.89;72.90
50774;BME280;36745;48.544;8.918;2022-07-23T06:19:59;97420.41;;;22.90;72.59
50774;BME280;36745;48.544;8.918;2022-07-23T06:22:59;97431.22;;;22.86;72.15
50774;BME280;36745;48.544;8.918;2022-07-23T06:26:00;97430.38;;;22.91;71.95
50774;BME280;36745;48.544;8.918;2022-07-23T06:29:00;97433.66;;;22.95;71.83
50774;BME280;36745;48.544;8.918;2022-07-23T06:32:01;97436.13;;;23.04;71.87
50774;BME280;36745;48.544;8.918;2022-07-23T06:35:01;97440.94;;;23.33;72.06
50774;BME280;36745;48.544;8.918;2022-07-23T06:38:02;97433.97;;;23.58;72.49
50774;BME280;36745;48.544;8.918;2022-07-23T06:41:02;97440.53;;;23.66;70.79
50774;BME280;36745;48.544;8.918;2022-07-23T06:44:03;97442.25;;;23.51;70.17
50774;BME280;36745;48.544;8.918;2022-07-23T06:47:03;97446.03;;;23.35;70.33
50774;BME280;36745;48.544;8.918;2022-07-23T06:50:04;97440.81;;;23.44;70.31
50774;BME280;36745;48.544;8.918;2022-07-23T06:53:05;97449.06;;;23.61;70.54
50774;BME280;36745;48.544;8.918;2022-07-23T06:56:05;97449.19;;;23.68;69.92
50774;BME280;36745;48.544;8.918;2022-07-23T06:59:06;97453.75;;;23.53;69.66
50774;BME280;36745;48.544;8.918;2022-07-23T07:02:07;97459.84;;;23.38;69.36
50774;BME280;36745;48.544;8.918;2022-07-23T07:05:08;97457.69;;;23.25;69.54
50774;BME280;36745;48.544;8.918;2022-07-23T07:08:08;97465.41;;;23.19;69.39
50774;BME280;36745;48.544;8.918;2022-07-23T07:11:09;97459.81;;;23.14;69.54
50774;BME280;36745;48.544;8.918;2022-07-23T07:14:10;97457.53;;;23.18;69.78
50774;BME280;36745;48.544;8.918;2022-07-23T07:17:10;97455.19;;;23.16;69.50
50774;BME280;36745;48.544;8.918;2022-07-23T07:20:11;97460.28;;;23.23;69.47
50774;BME280;36745;48.544;8.918;2022-07-23T07:23:12;97461.00;;;23.24;68.87
50774;BME280;36745;48.544;8.918;2022-07-23T07:26:12;97458.44;;;23.26;69.00
50774;BME280;36745;48.544;8.918;2022-07-23T07:29:13;97469.72;;;23.26;68.85
50774;BME280;36745;48.544;8.918;2022-07-23T07:32:13;97473.81;;;23.25;68.72
50774;BME280;36745;48.544;8.918;2022-07-23T07:35:14;97471.94;;;23.33;68.88
50774;BME280;36745;48.544;8.918;2022-07-23T07:38:14;97478.03;;;23.37;68.24
50774;BME280;36745;48.544;8.918;2022-07-23T07:41:15;97480.47;;;23.46;68.37
50774;BME280;36745;48.544;8.918;2022-07-23T07:44:16;97490.59;;;23.60;68.20
50774;BME280;36745;48.544;8.918;2022-07-23T07:47:16;97497.81;;;23.75;67.62
50774;BME280;36745;48.544;8.918;2022-07-23T07:50:17;97495.72;;;23.99;67.59
50774;BME280;36745;48.544;8.918;2022-07-23T07:53:17;97508.09;;;24.15;66.69
50774;BME280;36745;48.544;8.918;2022-07-23T07:56:24;97505.56;;;24.30;66.62
50774;BME280;36745;48.544;8.918;2022-07-23T07:59:24;97509.28;;;24.38;65.55
50774;BME280;36745;48.544;8.918;2022-07-23T08:02:25;97504.25;;;24.31;65.13
50774;BME280;36745;48.544;8.918;2022-07-23T08:05:27;97506.84;;;24.11;64.47
50774;BME280;36745;48.544;8.918;2022-07-23T08:08:29;97515.38;;;24.05;64.57
50774;BME280;36745;48.544;8.918;2022-07-23T08:11:49;97509.00;;;24.23;64.50
50774;BME280;36745;48.544;8.918;2022-07-23T08:14:51;97497.19;;;24.25;63.82
50774;BME280;36745;48.544;8.918;2022-07-23T08:17:55;97508.06;;;24.34;63.66
50774;BME280;36745;48.544;8.918;2022-07-23T08:20:56;97506.69;;;24.40;62.69
50774;BME280;36745;48.544;8.918;2022-07-23T08:23:57;97513.31;;;24.62;63.15
50774;BME280;36745;48.544;8.918;2022-07-23T08:26:57;97508.75;;;24.90;63.05
50774;BME280;36745;48.544;8.918;2022-07-23T08:29:57;97512.09;;;24.89;61.48
50774;BME280;36745;48.544;8.918;2022-07-23T08:33:05;97520.06;;;24.72;61.02
50774;BME280;36745;48.544;8.918;2022-07-23T08:36:08;97524.31;;;24.46;60.33
50774;BME280;36745;48.544;8.918;2022-07-23T08:39:08;97526.03;;;24.49;61.09
50774;BME280;36745;48.544;8.918;2022-07-23T08:42:09;97523.13;;;24.55;60.06
50774;BME280;36745;48.544;8.918;2022-07-23T08:45:11;97518.09;;;24.48;59.44
50774;BME280;36745;48.544;8.918;2022-07-23T08:48:22;97517.97;;;24.40;58.93
50774;BME280;36745;48.544;8.918;2022-07-23T08:51:26;97524.88;;;24.26;58.31
50774;BME280;36745;48.544;8.918;2022-07-23T08:54:27;97519.44;;;24.28;59.32
50774;BME280;36745;48.544;8.918;2022-07-23T08:57:28;97518.28;;;24.56;59.60
50774;BME280;36745;48.544;8.918;2022-07-23T09:00:29;97523.13;;;24.74;59.12
50774;BME280;36745;48.544;8.918;2022-07-23T09:03:32;97511.38;;;24.70;58.84
50774;BME280;36745;48.544;8.918;2022-07-23T09:06:33;97514.88;;;24.76;58.66
50774;BME280;36745;48.544;8.918;2022-07-23T09:09:34;97517.66;;;24.63;57.95
50774;BME280;36745;48.544;8.918;2022-07-23T09:12:35;97514.56;;;24.79;58.40
50774;BME280;36745;48.544;8.918;2022-07-23T09:15:48;97513.38;;;24.75;57.81
50774;BME280;36745;48.544;8.918;2022-07-23T09:18:53;97507.22;;;24.58;56.91
50774;BME280;36745;48.544;8.918;2022-07-23T09:21:54;97508.91;;;24.47;57.79
50774;BME280;36745;48.544;8.918;2022-07-23T09:25:16;97510.03;;;24.58;57.70
50774;BME280;36745;48.544;8.918;2022-07-23T09:28:17;97511.06;;;24.55;56.72
50774;BME280;36745;48.544;8.918;2022-07-23T09:31:18;97501.06;;;24.54;57.44
50774;BME280;36745;48.544;8.918;2022-07-23T09:34:24;97503.38;;;24.74;57.74
50774;BME280;36745;48.544;8.918;2022-07-23T09:37:25;97507.75;;;24.88;57.21
50774;BME280;36745;48.544;8.918;2022-07-23T09:40:26;97501.03;;;25.04;57.51
50774;BME280;36745;48.544;8.918;2022-07-23T09:43:27;97495.94;;;25.16;56.90
50774;BME280;36745;48.544;8.918;2022-07-23T09:46:28;97496.47;;;25.14;56.88
50774;BME280;36745;48.544;8.918;2022-07-23T09:49:28;97497.00;;;25.13;55.81
50774;BME280;36745;48.544;8.918;2022-07-23T09:52:47;97496.53;;;24.82;55.34
50774;BME280;36745;48.544;8.918;2022-07-23T09:55:48;97496.88;;;24.79;55.90
50774;BME280;36745;48.544;8.918;2022-07-23T09:58:50;97500.06;;;25.15;56.48
50774;BME280;36745;48.544;8.918;2022-07-23T10:02:05;97503.72;;;25.55;56.56
50774;BME280;36745;48.544;8.918;2022-07-23T10:05:06;97506.63;;;25.89;56.01
50774;BME280;36745;48.544;8.918;2022-07-23T10:08:11;97497.66;;;26.11;55.42
50774;BME280;36745;48.544;8.918;2022-07-23T10:11:12;97496.81;;;26.03;55.05
50774;BME280;36745;48.544;8.918;2022-07-23T10:14:14;97494.53;;;26.35;54.99
50774;BME280;36745;48.544;8.918;2022-07-23T10:17:15;97498.25;;;26.64;54.47
50774;BME280;36745;48.544;8.918;2022-07-23T10:20:15;97496.81;;;26.71;53.98
50774;BME280;36745;48.544;8.918;2022-07-23T10:23:24;97488.53;;;26.73;53.63
50774;BME280;36745;48.544;8.918;2022-07-23T10:26:38;97484.31;;;26.66;53.19
50774;BME280;36745;48.544;8.918;2022-07-23T10:36:40;97491.13;;;26.50;52.26
50774;BME280;36745;48.544;8.918;2022-07-23T10:39:38;97494.44;;;26.28;52.01
50774;BME280;36745;48.544;8.918;2022-07-23T10:42:38;97496.47;;;26.40;51.96
50774;BME280;36745;48.544;8.918;2022-07-23T10:45:39;97485.16;;;26.40;51.34
50774;BME280;36745;48.544;8.918;2022-07-23T10:48:39;97483.34;;;26.64;50.99
50774;BME280;36745;48.544;8.918;2022-07-23T10:58:20;97484.56;;;26.96;51.30
50774;BME280;36745;48.544;8.918;2022-07-23T11:01:37;97486.97;;;27.34;51.12
50774;BME280;36745;48.544;8.918;2022-07-23T11:04:52;97477.47;;;27.67;49.56
50774;BME280;36745;48.544;8.918;2022-07-23T11:11:09;97483.28;;;27.26;47.66
50774;BME280;36745;48.544;8.918;2022-07-23T11:14:10;97482.75;;;27.07;48.45
50774;BME280;36745;48.544;8.918;2022-07-23T11:17:19;97482.34;;;27.03;47.84
50774;BME280;36745;48.544;8.918;2022-07-23T11:20:22;97488.00;;;27.03;47.94
50774;BME280;36745;48.544;8.918;2022-07-23T11:23:23;97480.00;;;26.93;47.62
50774;BME280;36745;48.544;8.918;2022-07-23T11:26:50;97483.06;;;26.95;46.80
50774;BME280;36745;48.544;8.918;2022-07-23T11:29:52;97473.78;;;26.95;47.12
50774;BME280;36745;48.544;8.918;2022-07-23T11:32:54;97483.88;;;27.04;47.01
50774;BME280;36745;48.544;8.918;2022-07-23T11:36:13;97482.75;;;27.07;46.92
50774;BME280;36745;48.544;8.918;2022-07-23T11:39:14;97472.81;;;26.92;46.79
50774;BME280;36745;48.544;8.918;2022-07-23T11:42:17;97472.75;;;27.06;46.94
50774;BME280;36745;48.544;8.918;2022-07-23T11:45:18;97479.72;;;27.05;46.94
50774;BME280;36745;48.544;8.918;2022-07-23T11:48:21;97476.63;;;27.16;46.52
50774;BME280;36745;48.544;8.918;2022-07-23T11:51:25;97474.59;;;27.24;46.29
50774;BME280;36745;48.544;8.918;2022-07-23T11:54:26;97466.97;;;27.47;46.78
50774;BME280;36745;48.544;8.918;2022-07-23T11:57:29;97459.31;;;27.63;46.26
50774;BME280;36745;48.544;8.918;2022-07-23T12:00:31;97455.00;;;27.69;45.70
50774;BME280;36745;48.544;8.918;2022-07-23T12:03:31;97454.16;;;27.54;45.15
50774;BME280;36745;48.544;8.918;2022-07-23T12:06:38;97455.78;;;27.34;45.21
50774;BME280;36745;48.544;8.918;2022-07-23T12:09:44;97453.19;;;27.51;45.38
50774;BME280;36745;48.544;8.918;2022-07-23T12:15:51;97452.31;;;27.28;45.04
50774;BME280;36745;48.544;8.918;2022-07-23T12:18:52;97457.78;;;27.26;45.22
50774;BME280;36745;48.544;8.918;2022-07-23T12:21:53;97447.00;;;27.24;45.15
50774;BME280;36745;48.544;8.918;2022-07-23T12:28:05;97447.28;;;27.42;45.28
50774;BME280;36745;48.544;8.918;2022-07-23T12:31:06;97445.00;;;27.40;44.88
50774;BME280;36745;48.544;8.918;2022-07-23T12:34:14;97449.59;;;27.15;44.33
50774;BME280;36745;48.544;8.918;2022-07-23T12:37:36;97449.59;;;26.94;44.52
50774;BME280;36745;48.544;8.918;2022-07-23T12:40:45;97447.78;;;27.04;44.67
50774;BME280;36745;48.544;8.918;2022-07-23T12:43:46;97451.59;;;27.07;45.01
50774;BME280;36745;48.544;8.918;2022-07-23T12:46:50;97450.97;;;27.01;44.65
50774;BME280;36745;48.544;8.918;2022-07-23T12:49:50;97457.34;;;26.93;44.76
50774;BME280;36745;48.544;8.918;2022-07-23T12:53:04;97448.00;;;27.06;44.39
50774;BME280;36745;48.544;8.918;2022-07-23T12:56:12;97454.81;;;27.11;44.36
50774;BME280;36745;48.544;8.918;2022-07-23T12:59:16;97448.88;;;27.22;44.52
50774;BME280;36745;48.544;8.918;2022-07-23T13:02:16;97450.69;;;27.12;43.90
50774;BME280;36745;48.544;8.918;2022-07-23T13:05:17;97461.19;;;27.04;43.97
50774;BME280;36745;48.544;8.918;2022-07-23T13:08:17;97456.66;;;27.01;44.23
50774;BME280;36745;48.544;8.918;2022-07-23T13:11:18;97449.59;;;26.94;43.60
50774;BME280;36745;48.544;8.918;2022-07-23T13:14:20;97456.88;;;26.82;43.88
50774;BME280;36745;48.544;8.918;2022-07-23T13:17:20;97466.63;;;26.73;43.64
50774;BME280;36745;48.544;8.918;2022-07-23T13:20:21;97462.47;;;26.53;43.78
50774;BME280;36745;48.544;8.918;2022-07-23T13:23:21;97471.06;;;26.48;44.30
50774;BME280;36745;48.544;8.918;2022-07-23T13:26:22;97481.78;;;26.42;44.10
50774;BME280;36745;48.544;8.918;2022-07-23T13:29:22;97491.22;;;26.44;46.15
50774;BME280;36745;48.544;8.918;2022-07-23T13:32:23;97489.34;;;26.81;50.59
50774;BME280;36745;48.544;8.918;2022-07-23T13:35:23;97496.19;;;26.85;52.56
50774;BME280;36745;48.544;8.918;2022-07-23T13:38:24;97496.13;;;26.78;53.61
50774;BME280;36745;48.544;8.918;2022-07-23T13:41:24;97491.84;;;26.64;51.82
50774;BME280;36745;48.544;8.918;2022-07-23T13:44:25;97486.31;;;26.58;54.36
50774;BME280;36745;48.544;8.918;2022-07-23T13:47:25;97477.06;;;26.58;54.60
50774;BME280;36745;48.544;8.918;2022-07-23T13:50:26;97476.97;;;26.50;55.83
50774;BME280;36745;48.544;8.918;2022-07-23T13:53:27;97483.09;;;26.41;55.60
50774;BME280;36745;48.544;8.918;2022-07-23T13:56:27;97482.72;;;26.24;55.81
50774;BME280;36745;48.544;8.918;2022-07-23T13:59:27;97491.94;;;26.03;55.44
50774;BME280;36745;48.544;8.918;2022-07-23T14:02:28;97486.28;;;25.90;56.41
50774;BME280;36745;48.544;8.918;2022-07-23T14:05:29;97496.72;;;25.82;56.71
50774;BME280;36745;48.544;8.918;2022-07-23T14:08:29;97493.03;;;25.74;57.05
50774;BME280;36745;48.544;8.918;2022-07-23T14:11:30;97494.78;;;25.64;56.79
50774;BME280;36745;48.544;8.918;2022-07-23T14:14:31;97491.31;;;25.58;56.89
50774;BME280;36745;48.544;8.918;2022-07-23T14:17:32;97488.47;;;25.71;57.84
50774;BME280;36745;48.544;8.918;2022-07-23T14:20:33;97489.31;;;25.79;56.50
50774;BME280;36745;48.544;8.918;2022-07-23T14:23:33;97489.75;;;25.83;56.41
50774;BME280;36745;48.544;8.918;2022-07-23T14:26:34;97472.66;;;26.02;56.34
50774;BME280;36745;48.544;8.918;2022-07-23T14:29:35;97476.97;;;26.16;56.47
50774;BME280;36745;48.544;8.918;2022-07-23T14:32:36;97477.28;;;26.26;56.42
50774;BME280;36745;48.544;8.918;2022-07-23T14:35:39;97470.47;;;26.42;56.63
50774;BME280;36745;48.544;8.918;2022-07-23T14:38:39;97473.19;;;26.68;56.45
50774;BME280;36745;48.544;8.918;2022-07-23T14:41:40;97474.50;;;26.67;53.72
50774;BME280;36745;48.544;8.918;2022-07-23T14:44:40;97456.75;;;26.33;53.65
50774;BME280;36745;48.544;8.918;2022-07-23T14:47:42;97464.31;;;26.30;53.31
50774;BME280;36745;48.544;8.918;2022-07-23T14:50:42;97454.16;;;26.35;53.41
50774;BME280;36745;48.544;8.918;2022-07-23T14:53:43;97452.84;;;26.36;52.10
50774;BME280;36745;48.544;8.918;2022-07-23T14:56:43;97451.44;;;25.95;50.55
50774;BME280;36745;48.544;8.918;2022-07-23T14:59:44;97451.59;;;25.77;51.32
50774;BME280;36745;48.544;8.918;2022-07-23T15:02:44;97452.13;;;25.75;51.15
50774;BME280;36745;48.544;8.918;2022-07-23T15:05:44;97449.31;;;25.88;51.96
50774;BME280;36745;48.544;8.918;2022-07-23T15:08:45;97448.09;;;25.97;51.89
50774;BME280;36745;48.544;8.918;2022-07-23T15:11:45;97454.50;;;25.97;51.69
50774;BME280;36745;48.544;8.918;2022-07-23T15:14:46;97446.72;;;26.11;51.79
50774;BME280;36745;48.544;8.918;2022-07-23T15:17:46;97445.28;;;26.18;51.67
50774;BME280;36745;48.544;8.918;2022-07-23T15:20:47;97446.41;;;26.14;51.96
50774;BME280;36745;48.544;8.918;2022-07-23T15:23:47;97455.78;;;26.09;51.37
50774;BME280;36745;48.544;8.918;2022-07-23T15:26:48;97445.19;;;26.10;51.64
50774;BME280;36745;48.544;8.918;2022-07-23T15:29:48;97450.53;;;26.13;51.42
50774;BME280;36745;48.544;8.918;2022-07-23T15:32:48;97453.56;;;26.15;51.81
50774;BME280;36745;48.544;8.918;2022-07-23T15:35:49;97453.56;;;26.15;51.67
50774;BME280;36745;48.544;8.918;2022-07-23T15:38:49;97456.19;;;26.13;51.78
50774;BME280;36745;48.544;8.918;2022-07-23T15:41:50;97458.13;;;26.19;51.81
50774;BME280;36745;48.544;8.918;2022-07-23T15:44:51;97454.75;;;26.20;51.51
50774;BME280;36745;48.544;8.918;2022-07-23T15:47:51;97448.53;;;26.22;51.31
50774;BME280;36745;48.544;8.918;2022-07-23T15:50:52;97457.03;;;26.22;51.39
50774;BME280;36745;48.544;8.918;2022-07-23T15:53:52;97454.00;;;26.20;51.14
50774;BME280;36745;48.544;8.918;2022-07-23T15:56:53;97443.75;;;26.17;51.00
50774;BME280;36745;48.544;8.918;2022-07-23T15:59:53;97445.06;;;26.15;51.36
50774;BME280;36745;48.544;8.918;2022-07-23T16:02:56;97451.28;;;26.14;51.09
50774;BME280;36745;48.544;8.918;2022-07-23T16:05:56;97450.53;;;26.13;51.15
50774;BME280;36745;48.544;8.918;2022-07-23T16:08:57;97450.53;;;26.13;50.88
50774;BME280;36745;48.544;8.918;2022-07-23T16:11:57;97450.31;;;26.11;51.00
50774;BME280;36745;48.544;8.918;2022-07-23T16:14:57;97453.38;;;26.13;51.15
50774;BME280;36745;48.544;8.918;2022-07-23T16:17:58;97456.59;;;26.18;51.21
50774;BME280;36745;48.544;8.918;2022-07-23T16:20:58;97457.03;;;26.22;50.89
50774;BME280;36745;48.544;8.918;2022-07-23T16:23:59;97458.97;;;26.27;51.14